Timeline UpdatesTrip UpdatesNews PostsPvt PostsTravel TipsAdmin PostsConv PostsFollowed PostsChat RequestsBlog PostsPNR Posts

Disclaimer
Search
 
 
Sun Aug 31, 2014 07:47:15 ISTHomeTrainsΣChainsAtlasPNRForumGalleryNewsFAQTripsMembersLoginFeedback
No Recent News for this Train
Other Trains in the News **new
Latest...
running with Inspection Car is of NR [0611/A]; since 2 weeks
Wed Jul 23, 2014 (11:12AM)
⇐ Return Journey: Train# 13483

13484/Farakka Express (via Faizabad)

Mar 05 2014 (7:09PM)
Change Departure Station:
Change Arrival Station:
Post a Train Travel TipPost a Train Travel Tip **new
Post a Comment/Question/Picture/VideoPost a Comment/Question/Picture/Video
Pantry/Catering
✓ Pantry Car Avbl
✓ Catering Avbl
RSA - Rake Sharing
13413/13414/04031/04032
Rake/Coach Composition
LOCO-SLR-UR-UR-S9-S8-S7-S6-S5-S4-S3-S2-S1-PC-B1-A1-UR-UR-UR-UR-UR-SLR-HPCV http://indiarailinfo.com/blog/post/1168926 by manu
Loco
DLI - LKO -> GZB[NR] WAP-5/7; LKO - MLDT ->...
Read more...
LKO[NR] WDM-3D/3A
News    PNR    Forum    Time-Table    Availability    Fare Chart    Map    Arr/Dep History    Trips    Gallery    ΣChains    X/O    Timeline    
Travel Time: 22h 52m    39 halts    Distance: 1059 km    Avg Speed: 46 km/hr
Type: Mail/Express
Zone: ER/Eastern
Departs @ 21:50 (Avg 12m late)
Platform# 7
S T TF 
Old Delhi Junction/DLI 
Arrives @ 20:42 +1 night (Avg 1h 54m late)
Platform# 2
 M W FS
Patna Junction/PNBE 

39 halts. 175 intermediate Stations between Old Delhi Junction and Patna Junction

Show ALL intermediate Stations  Show Old Time-Table

#CodeStation NameX/OArrivesAvgDepartsAvgHaltPFDay#KmSpeedElevZoneAddress
1DLI»Old Delhi Junction (16)»  -21:50+12710.033219mNRNear Chandni Chowk Metro Station, Delhi NCT
2GZBGhaziabad Junction (6)  22:26+1622:28+192m2120.166217mNRGhaziabad, Uttar Pradesh
3KRJKhurja Junction (4)  23:25+4423:28+453m--182.742199mNCRBulandshahr, Uttar Pradesh
4ALJNAligarh Junction (4)  00:30+2900:35+295m22126.286192mNCRAligarh, Uttar Pradesh
5HRSHathras Junction (3)XO  00:56+3701:01+355m--2156.459183mNCRMahamaya Nagar(05722-242803), Uttar Pradesh
6TDLTundla Junction (5)X  01:50+3901:58+398m32204.450167mNCRDistt.Firozabad, Uttar Pradesh
7FZDFirozabad (4)X  02:18+4202:20+442m22220.963164mNCRFirozabad, Uttar Pradesh
8SKBShikohabad Junction (4)X  02:39+4502:41+482m22240.885166mNCRDistrict Firozabad, Uttar Pradesh
9ETWEtawah (5)X  03:20+5103:22+532m32296.265154mNCRDistt. Etawah, Uttar Pradesh
10CNBKanpur Central (10)X  05:30+3705:45+3315m72435.550128mNCRKANPUR-208 001, Uttar Pradesh
11ONUnnao Junction (5)X  06:06+5506:08+552m--2453.045129mNRUnnao, Uttar Pradesh
12LKOLucknow Charbagh (9)X  07:20+5007:45+5725m--2507.549123mNR226004, Uttar Pradesh
13BBKBarabanki Junction (4)  08:20+1:0708:22+1:092m--2536.152122mNRPin-225001, Uttar Pradesh
14DYDDaryabad  09:06+1:1009:07+1:131m--2574.169116mNRFaizabad Rd, Uttar Pradesh
15RDLRudauli (2)  09:27+1:1709:28+1:171m--2597.272112mNRRudauli, Uttar Pradesh
16SLWSohwal  09:47+1:2309:48+1:241m--2620.142107mNRFaizabad Rd, Uttar Pradesh
17FDFaizabad Junction (5)X  10:10+1:2410:15+1:275m--2635.313104mNRFaizabad, Uttar Pradesh
18ACNDAcharya Narendra Dev Nagar  10:25+1:3010:26+1:301m--2637.512104mNRFaizabad, Uttar Pradesh
19AYAyodhya Junction (3)X  10:48+1:1810:49+1:181m12642.06698mNRAyodhya, Uttar Pradesh
20GGJGoshainGanj (3)  11:18+1:2311:19+1:241m--2673.87498mNRGoshainganj, Uttar Pradesh
21ABPAkbarpur (2)  11:37+1:2411:39+1:242m--2696.07292mNRAkbarpur, Uttar Pradesh
22MLPRMalipur (2)  11:55+1:3511:56+1:361m--2715.16292mNRMalipur, Uttar Pradesh
23SHGShahganj Junction (4)  12:20+1:4012:25+1:415m--2740.15090mNRShahganj, Uttar Pradesh
24JNUJaunpur Junction (5)X  13:05+1:4413:07+1:472m12773.42383mNRJaunpur, Uttar Pradesh
25ZBDZafarabad Junction (4)X  13:24+1:4313:25+1:441m--2779.83683mNRNational Highway 56, Uttar Pradesh
26JLLJalalGanj (2)  13:45+1:4113:46+1:421m--2791.93287mNRJalalganj Railway Station, Uttar Pradesh
27BSBVaranasi Junction (9)X  15:00+1:2315:15+1:2615m82831.01882mNRVaranasi 221002, Uttar Pradesh
28MGSMughal Sarai Junction (8)  16:10+1:2016:25+1:1915m--2847.57483mECRMughalsarai 232101, Uttar Pradesh
29ZNAZamania (2)  17:01+1:3017:03+1:322m--2891.76777mECRGhazipur, Uttar Pradesh
30DLNDildarnagar Junction (2)  17:15+1:4117:17+1:422m--2905.25272mECRDildarnagar, Uttar Pradesh
31BWHBhadaura (2)17:26+1:4217:28+1:432m--2913.06169mECRGhazipur, Uttar Pradesh
32GMRGahmar (2)X  17:36+1:4417:38+1:442m--2921.27968mECRDistt: Ghazipur, Uttar Pradesh
33CSAChausa (2)  17:45+1:5217:47+1:542m--2930.56068mECRState Highway 14, Bihar
34BXRBuxar (3)X  17:58+1:4518:03+1:435m--2941.48967mECRBuxar, Bihar
35DUREDumraon (3)  18:14+1:5218:16+1:532m--2957.78070mECRDumraon, Bihar
36RPRRaghunathpur (4)  18:28+2:0418:30+2:042m--2973.77469mECRRaghunathpur, Bihar
37BEABihiya (3)  18:42+2:1018:44+2:142m--2988.57167mECRBehea, Bihar
38ARAAra Junction (3)X  19:02+2:0719:07+2:055m--21009.98963mECRarrah( 06182-233411), Bihar
39BTABihta (2)X  19:22+2:0419:24+2:052m--21032.13462mECRDistt: Patna, Bihar
40DNRDanapur (5)X  19:55+2:1620:05+2:0110m--21049.41558mECRKhagaul, Bihar
41PNBE•Patna Junction (10)•X  20:42+1:5420:52+1:5710m221058.82257mECRPatna 800001, Bihar
42RJPBRajendra Nagar Bihar (4)  20:59+2:1921:01+2:202m--21061.43455mECRPatna 800001, Bihar
43PNCPatna Saheb (3)X  21:14+2:2521:16+2:302m--21068.74159mECRPatna, Bihar
44FUTFatwa (6)  21:34+2:2021:36+2:232m--21080.95553mECRPatna, Bihar
45BKPBakhtiyarpur Junction (5)XO  22:01+2:1422:05+2:154m--21103.93851mECRPatna, Bihar
46BARHBarh (3)  22:34+2:0922:36+2:102m--21122.27149mECRBarh, Bihar
47MKAMokama Junction (4)  22:58+2:1423:03+2:125m--21148.17148mECRPatna, Bihar
48BRYABarhiya (3)  23:18+2:1323:20+2:132m--21165.82247mECRBarahiya, Bihar
49KIULKiul Junction (5)  00:05+2:0600:10+2:065m--31182.36653mECRDist. Lakhisarai, Bihar
50AHAAbhaipur (2)  00:31+2:1500:33+2:152m--31205.36052mERAbhaipur, Bihar
51JMPJamalpur Junction (4)  00:55+2:1201:05+2:1410m131227.16159mERJamalpur 06344-243101, Bihar
52BUPBariarpur (3)  01:16+2:2901:18+2:292m--31238.25442mERMunger, Bihar
53SGGSultanGanj (3)  01:38+2:2801:40+2:302m--31256.24742mERSultanganj, Bihar
54BGPBhagalpur Junction (6)  02:12+2:1702:22+2:2110m--31281.15749mERBhagalpur, Bihar
55SBOSabaur (3)  02:30+2:3402:32+2:372m--31288.76142mERSabour, Bihar
56CLGKahalgaon (2)  02:54+3:0102:56+3:052m131311.23744mERBhagalpur, Bihar
57PPTPirpainti (2)  03:29+3:0203:31+3:052m--31331.52653mERBhagalpur, Bihar
58SBGSahibganj Junction (3)X  04:25+2:4704:33+2:538m131355.18438mERSahibganj, Jharkhand
59TPHTinpahar Junction (3)X  05:00+3:1405:02+3:142m231392.83345mERBamangawan, Jharkhand
60BHWBarharwa Junction (3)  05:32+3:0305:36+3:054m231409.54036mERBarharwa, Jharkhand
61NFKNew Farakka Junction (3)X  06:03+3:1106:08+3:095m231427.52932mERDist - Murshidabad, West Bengal
62MLDTMalda Town (5)  07:20+2:08---31462.6-30mERDist - Malda, West Bengal
Scroll to Top
Scroll to Bottom